createdAt,value
2024-02-07T00:01:49.519Z,6.10
2024-02-07T00:04:36.415Z,6.10
2024-02-07T00:07:23.401Z,6.10
2024-02-07T00:10:10.477Z,6.10
2024-02-07T00:12:57.296Z,6.10
2024-02-07T00:15:44.176Z,6.10
2024-02-07T00:18:31.086Z,6.10
2024-02-07T00:21:17.863Z,6.10
2024-02-07T00:24:05.179Z,6.10
2024-02-07T00:26:51.958Z,6.10
2024-02-07T00:29:38.803Z,6.10
2024-02-07T00:32:25.658Z,6.10
2024-02-07T00:35:12.603Z,6.10
2024-02-07T00:37:59.479Z,6.10
2024-02-07T00:40:46.492Z,6.10
2024-02-07T00:43:33.820Z,6.10
2024-02-07T00:46:20.800Z,6.10
2024-02-07T00:49:13.629Z,6.10
2024-02-07T00:52:00.579Z,6.10
2024-02-07T00:54:47.391Z,6.10
2024-02-07T00:57:34.231Z,6.10
2024-02-07T01:00:21.200Z,6.10
2024-02-07T01:03:08.054Z,6.10
2024-02-07T01:05:54.920Z,6.10
2024-02-07T01:08:41.947Z,6.10
2024-02-07T01:11:28.831Z,6.10
2024-02-07T01:14:15.898Z,6.10
2024-02-07T01:17:02.710Z,6.10
2024-02-07T01:19:49.779Z,6.10
2024-02-07T01:22:37.117Z,6.10
2024-02-07T01:25:26.632Z,6.10
2024-02-07T01:28:13.938Z,6.10
2024-02-07T01:31:01.005Z,6.10
2024-02-07T01:33:47.798Z,6.10
2024-02-07T01:36:34.579Z,6.10
2024-02-07T01:39:21.586Z,6.10
2024-02-07T01:42:08.346Z,6.10
2024-02-07T01:45:43.919Z,6.10
2024-02-07T01:48:30.892Z,6.00
2024-02-07T01:51:17.870Z,6.00
2024-02-07T01:54:04.735Z,6.00
2024-02-07T01:56:51.794Z,6.10
2024-02-07T01:59:38.640Z,6.00
2024-02-07T02:02:27.048Z,6.00
2024-02-07T02:05:14.122Z,6.00
2024-02-07T02:08:03.463Z,6.00
2024-02-07T02:10:51.676Z,6.00
2024-02-07T02:13:39.050Z,6.00
2024-02-07T02:16:25.896Z,6.00
2024-02-07T02:19:12.963Z,6.00
2024-02-07T02:21:59.784Z,6.00
2024-02-07T02:25:30.949Z,6.00
2024-02-07T02:28:36.303Z,6.00
2024-02-07T02:31:23.221Z,6.00
2024-02-07T02:34:10.106Z,6.00
2024-02-07T02:36:57.181Z,6.00
2024-02-07T02:39:44.867Z,6.00
2024-02-07T02:42:31.679Z,6.00
2024-02-07T02:45:18.761Z,6.00
2024-02-07T02:48:06.419Z,6.00
2024-02-07T02:50:53.507Z,6.00
2024-02-07T02:53:40.344Z,6.00
2024-02-07T02:56:27.515Z,6.00
2024-02-07T02:59:15.411Z,6.00
2024-02-07T03:02:09.912Z,6.00
2024-02-07T03:04:56.960Z,6.00
2024-02-07T03:08:09.949Z,6.00
2024-02-07T03:10:57.285Z,6.00
2024-02-07T03:13:44.926Z,6.00
2024-02-07T03:16:31.959Z,6.00
2024-02-07T03:19:18.871Z,6.00
2024-02-07T03:22:05.937Z,6.00
2024-02-07T03:24:56.958Z,6.00
2024-02-07T03:27:49.772Z,6.00
2024-02-07T03:30:37.369Z,6.00
2024-02-07T03:33:24.369Z,5.90
2024-02-07T03:36:11.645Z,6.00
2024-02-07T03:39:00.091Z,6.00
2024-02-07T03:41:47.415Z,6.00
2024-02-07T03:44:34.210Z,6.00
2024-02-07T03:47:21.046Z,6.00
2024-02-07T03:50:16.597Z,6.00
2024-02-07T03:53:05.182Z,6.00
2024-02-07T03:55:52.086Z,6.00
2024-02-07T03:58:39.330Z,6.00
2024-02-07T04:01:27.664Z,6.00
2024-02-07T04:04:15.269Z,6.00
2024-02-07T04:07:02.429Z,6.00
2024-02-07T04:09:49.267Z,6.00
2024-02-07T04:12:36.562Z,6.00
2024-02-07T04:15:41.884Z,6.00
2024-02-07T04:18:47.168Z,6.00
2024-02-07T04:21:52.291Z,6.00
2024-02-07T04:24:57.557Z,6.00
2024-02-07T04:28:02.811Z,6.00
2024-02-07T04:31:08.979Z,6.00
2024-02-07T04:34:14.358Z,6.00
2024-02-07T04:37:19.734Z,6.00
2024-02-07T04:40:25.730Z,6.00
2024-02-07T04:43:31.051Z,6.00
2024-02-07T04:46:36.324Z,6.00
2024-02-07T04:49:41.863Z,6.00
2024-02-07T04:52:47.325Z,6.00
2024-02-07T04:55:52.800Z,6.00
2024-02-07T04:58:58.323Z,6.00
2024-02-07T05:02:03.638Z,6.00
2024-02-07T05:05:09.063Z,6.00
2024-02-07T05:08:14.341Z,6.00
2024-02-07T05:11:19.403Z,6.00
2024-02-07T05:14:24.710Z,6.00
2024-02-07T05:17:11.488Z,6.00
2024-02-07T05:19:59.410Z,6.00
2024-02-07T05:22:46.363Z,6.00
2024-02-07T05:25:34.242Z,6.00
2024-02-07T05:28:21.163Z,5.90
2024-02-07T05:31:08.140Z,6.00
2024-02-07T05:33:54.997Z,6.00
2024-02-07T05:36:42.065Z,6.00
2024-02-07T05:39:36.499Z,6.00
2024-02-07T05:42:23.587Z,6.00
2024-02-07T05:45:10.529Z,6.00
2024-02-07T05:47:57.413Z,6.00
2024-02-07T05:50:46.107Z,5.90
2024-02-07T05:53:32.970Z,6.00
2024-02-07T05:56:20.637Z,6.00
2024-02-07T05:59:07.772Z,6.00
2024-02-07T06:01:54.804Z,6.00
2024-02-07T06:04:42.057Z,6.00
2024-02-07T06:07:28.943Z,6.00
2024-02-07T06:10:15.834Z,6.00
2024-02-07T06:13:03.377Z,6.00
2024-02-07T06:15:51.251Z,6.00
2024-02-07T06:18:38.139Z,6.00
2024-02-07T06:21:25.004Z,6.00
2024-02-07T06:24:11.917Z,6.00
2024-02-07T06:26:59.430Z,6.00
2024-02-07T06:29:46.291Z,6.00
2024-02-07T06:32:33.440Z,6.00
2024-02-07T06:35:20.465Z,6.00
2024-02-07T06:38:07.398Z,6.00
2024-02-07T06:40:54.252Z,6.00
2024-02-07T06:43:41.087Z,6.00
2024-02-07T06:46:30.680Z,6.00
2024-02-07T06:49:17.832Z,6.00
2024-02-07T06:52:05.682Z,6.00
2024-02-07T06:54:52.680Z,6.00
2024-02-07T06:57:39.418Z,6.00
2024-02-07T07:00:26.528Z,6.00
2024-02-07T07:03:13.488Z,6.00
2024-02-07T07:06:00.523Z,6.00
2024-02-07T07:08:47.385Z,6.00
2024-02-07T07:11:34.338Z,6.00
2024-02-07T07:14:21.100Z,6.10
2024-02-07T07:17:08.809Z,6.10
2024-02-07T07:19:55.638Z,6.10
2024-02-07T07:22:42.576Z,6.10
2024-02-07T07:25:29.692Z,6.10
2024-02-07T07:28:16.588Z,6.10
2024-02-07T07:31:03.498Z,6.10
2024-02-07T07:33:50.317Z,6.10
2024-02-07T07:36:37.214Z,6.10
2024-02-07T07:39:24.016Z,6.10
2024-02-07T07:42:12.271Z,6.10
2024-02-07T07:44:59.259Z,6.20
2024-02-07T07:47:46.252Z,6.20
2024-02-07T07:50:33.038Z,6.20
2024-02-07T07:53:19.981Z,6.20
2024-02-07T07:56:07.565Z,6.20
2024-02-07T07:58:54.590Z,6.20
2024-02-07T08:01:43.670Z,6.20
2024-02-07T08:04:30.728Z,6.20
2024-02-07T08:07:17.945Z,6.30
2024-02-07T08:10:05.290Z,6.30
2024-02-07T08:12:52.035Z,6.30
2024-02-07T08:15:38.882Z,6.30
2024-02-07T08:18:25.695Z,6.30
2024-02-07T08:21:12.567Z,6.30
2024-02-07T08:24:00.598Z,6.30
2024-02-07T08:26:49.955Z,6.40
2024-02-07T08:29:37.036Z,6.30
2024-02-07T08:32:24.325Z,6.40
2024-02-07T08:35:11.517Z,6.40
2024-02-07T08:38:00.495Z,6.40
2024-02-07T08:40:47.705Z,6.40
2024-02-07T08:43:34.886Z,6.40
2024-02-07T08:46:21.749Z,6.40
2024-02-07T08:49:08.648Z,6.40
2024-02-07T08:51:55.589Z,6.40
2024-02-07T08:54:42.384Z,6.50
2024-02-07T08:57:29.368Z,6.50
2024-02-07T09:00:16.705Z,6.50
2024-02-07T09:03:04.109Z,6.50
2024-02-07T09:05:51.078Z,6.50
2024-02-07T09:08:38.204Z,6.50
2024-02-07T09:11:25.059Z,6.50
2024-02-07T09:14:13.208Z,6.50
2024-02-07T09:17:00.210Z,6.60
2024-02-07T09:19:47.154Z,6.60
2024-02-07T09:22:34.122Z,6.60
2024-02-07T09:25:21.174Z,6.60
2024-02-07T09:28:08.281Z,6.70
2024-02-07T09:30:55.513Z,6.70
2024-02-07T09:33:42.389Z,6.70
2024-02-07T09:36:29.825Z,6.70
2024-02-07T09:39:18.626Z,6.80
2024-02-07T09:42:08.468Z,6.80
2024-02-07T09:44:56.785Z,6.80
2024-02-07T09:47:55.401Z,6.90
2024-02-07T09:50:42.232Z,6.90
2024-02-07T09:53:31.797Z,7.00
2024-02-07T09:56:20.792Z,7.00
2024-02-07T09:59:12.046Z,7.10
2024-02-07T10:01:59.062Z,7.10
2024-02-07T10:04:51.928Z,7.20
2024-02-07T10:07:38.853Z,7.20
2024-02-07T10:10:27.208Z,7.30
2024-02-07T10:13:18.138Z,7.30
2024-02-07T10:16:06.902Z,7.40
2024-02-07T10:18:54.762Z,7.40
2024-02-07T10:21:41.647Z,7.50
2024-02-07T10:24:32.910Z,7.50
2024-02-07T10:27:23.300Z,7.50
2024-02-07T10:30:11.003Z,7.60
2024-02-07T10:32:58.359Z,7.60
2024-02-07T10:35:45.328Z,7.70
2024-02-07T10:38:35.746Z,7.70
2024-02-07T10:41:22.887Z,7.70
2024-02-07T10:44:10.548Z,7.70
2024-02-07T10:47:00.825Z,7.80
2024-02-07T10:49:47.812Z,7.80
2024-02-07T10:52:38.168Z,7.80
2024-02-07T10:55:27.962Z,7.90
2024-02-07T10:58:17.013Z,7.90
2024-02-07T11:01:04.079Z,7.90
2024-02-07T11:03:51.133Z,7.90
2024-02-07T11:06:37.952Z,8.00
2024-02-07T11:09:25.364Z,8.00
2024-02-07T11:12:15.943Z,8.00
2024-02-07T11:15:03.515Z,8.00
2024-02-07T11:17:50.409Z,8.10
2024-02-07T11:20:38.063Z,8.10
2024-02-07T11:23:32.269Z,8.10
2024-02-07T11:26:19.175Z,8.10
2024-02-07T11:29:07.758Z,8.10
2024-02-07T11:31:55.459Z,8.10
2024-02-07T11:34:42.590Z,8.10
2024-02-07T11:37:39.566Z,8.20
2024-02-07T11:40:28.295Z,8.20
2024-02-07T11:43:22.036Z,8.20
2024-02-07T11:46:09.846Z,8.20
2024-02-07T11:49:01.120Z,8.20
2024-02-07T11:52:00.996Z,8.20
2024-02-07T11:54:49.814Z,8.20
2024-02-07T11:57:36.717Z,8.20
2024-02-07T12:00:23.958Z,8.20
2024-02-07T12:03:13.773Z,8.30
2024-02-07T12:06:00.862Z,8.30
2024-02-07T12:08:47.729Z,8.30
2024-02-07T12:11:34.639Z,8.30
2024-02-07T12:14:21.391Z,8.40
2024-02-07T12:17:08.846Z,8.40
2024-02-07T12:20:00.100Z,8.40
2024-02-07T12:22:47.585Z,8.40
2024-02-07T12:25:34.510Z,8.40
2024-02-07T12:28:21.455Z,8.40
2024-02-07T12:31:08.373Z,8.50
2024-02-07T12:33:55.684Z,8.50
2024-02-07T12:36:42.533Z,8.50
2024-02-07T12:39:29.568Z,8.50
2024-02-07T12:42:17.658Z,8.60
2024-02-07T12:45:04.799Z,8.60
2024-02-07T12:47:51.668Z,8.60
2024-02-07T12:50:38.515Z,8.60
2024-02-07T12:53:25.498Z,8.70
2024-02-07T12:56:22.994Z,8.70
2024-02-07T12:59:09.881Z,8.80
2024-02-07T13:01:57.214Z,8.80
2024-02-07T13:04:44.860Z,8.80
2024-02-07T13:07:31.801Z,8.80
2024-02-07T13:10:18.639Z,8.90
2024-02-07T13:13:05.468Z,8.90
2024-02-07T13:15:52.759Z,8.90
2024-02-07T13:18:39.801Z,9.00
2024-02-07T13:21:26.861Z,9.00
2024-02-07T13:24:17.614Z,9.00
2024-02-07T13:27:04.650Z,9.00
2024-02-07T13:29:51.447Z,9.10
2024-02-07T13:32:38.379Z,9.10
2024-02-07T13:35:25.363Z,9.10
2024-02-07T13:38:22.245Z,9.10
2024-02-07T13:41:20.586Z,9.10
2024-02-07T13:44:07.448Z,9.10
2024-02-07T13:46:54.330Z,9.20
2024-02-07T13:49:41.370Z,9.20
2024-02-07T13:52:28.277Z,9.20
2024-02-07T13:55:15.180Z,9.20
2024-02-07T13:58:02.510Z,9.20
2024-02-07T14:00:49.451Z,9.20
2024-02-07T14:03:36.325Z,9.30
2024-02-07T14:06:23.158Z,9.20
2024-02-07T14:09:10.017Z,9.30
2024-02-07T14:11:56.799Z,9.30
2024-02-07T14:14:43.971Z,9.30
2024-02-07T14:17:30.908Z,9.30
2024-02-07T14:20:17.861Z,9.30
2024-02-07T14:23:05.304Z,9.40
2024-02-07T14:25:52.223Z,9.30
2024-02-07T14:28:39.177Z,9.30
2024-02-07T14:31:26.369Z,9.30
2024-02-07T14:34:15.989Z,9.30
2024-02-07T14:37:03.551Z,9.30
2024-02-07T14:39:50.449Z,9.30
2024-02-07T14:42:37.794Z,9.30
2024-02-07T14:45:24.767Z,9.30
2024-02-07T14:48:11.802Z,9.30
2024-02-07T14:50:58.840Z,9.30
2024-02-07T14:53:45.774Z,9.30
2024-02-07T14:56:32.623Z,9.30
2024-02-07T14:59:19.565Z,9.30
2024-02-07T15:02:07.402Z,9.30
2024-02-07T15:04:54.394Z,9.30
2024-02-07T15:07:41.477Z,9.20
2024-02-07T15:10:28.383Z,9.20
2024-02-07T15:13:15.227Z,9.20
2024-02-07T15:16:02.028Z,9.20
2024-02-07T15:18:48.936Z,9.20
2024-02-07T15:21:36.273Z,9.20
2024-02-07T15:24:23.879Z,9.20
2024-02-07T15:27:10.627Z,9.20
2024-02-07T15:29:57.454Z,9.20
2024-02-07T15:32:44.480Z,9.10
2024-02-07T15:35:31.556Z,9.20
2024-02-07T15:38:18.323Z,9.10
2024-02-07T15:41:05.572Z,9.10
2024-02-07T15:43:54.336Z,9.10
2024-02-07T15:46:41.312Z,9.10
2024-02-07T15:49:28.296Z,9.10
2024-02-07T15:52:15.167Z,9.10
2024-02-07T15:55:02.071Z,9.10
2024-02-07T15:57:48.937Z,9.10
2024-02-07T16:00:35.899Z,9.00
2024-02-07T16:03:22.673Z,9.00
2024-02-07T16:06:09.558Z,9.00
2024-02-07T16:08:56.306Z,9.00
2024-02-07T16:11:43.145Z,9.00
2024-02-07T16:14:29.893Z,9.00
2024-02-07T16:17:16.688Z,9.00
2024-02-07T16:20:03.928Z,9.00
2024-02-07T16:22:51.172Z,8.90
2024-02-07T16:25:38.000Z,8.90
2024-02-07T16:28:25.072Z,8.90
2024-02-07T16:31:12.192Z,8.90
2024-02-07T16:33:59.190Z,8.90
2024-02-07T16:36:46.029Z,8.90
2024-02-07T16:39:34.113Z,8.90
2024-02-07T16:42:20.938Z,8.90
2024-02-07T16:45:08.622Z,8.90
2024-02-07T16:47:55.586Z,8.80
2024-02-07T16:50:42.499Z,8.80
2024-02-07T16:53:29.351Z,8.80
2024-02-07T16:56:19.781Z,8.80
2024-02-07T16:59:06.796Z,8.80
2024-02-07T17:01:54.132Z,8.80
2024-02-07T17:04:41.458Z,8.80
2024-02-07T17:07:28.480Z,8.80
2024-02-07T17:10:17.347Z,8.80
2024-02-07T17:13:04.453Z,8.80
2024-02-07T17:15:51.507Z,8.70
2024-02-07T17:18:38.382Z,8.70
2024-02-07T17:21:25.171Z,8.70
2024-02-07T17:24:11.976Z,8.70
2024-02-07T17:27:00.494Z,8.70
2024-02-07T17:29:55.477Z,8.70
2024-02-07T17:32:47.005Z,8.70
2024-02-07T17:35:34.001Z,8.70
2024-02-07T17:38:20.811Z,8.60
2024-02-07T17:41:09.380Z,8.60
2024-02-07T17:43:56.675Z,8.60
2024-02-07T17:46:43.516Z,8.60
2024-02-07T17:49:30.573Z,8.60
2024-02-07T17:52:18.224Z,8.60
2024-02-07T17:55:05.592Z,8.60
2024-02-07T17:57:52.371Z,8.60
2024-02-07T18:00:39.160Z,8.60
2024-02-07T18:03:26.119Z,8.60
2024-02-07T18:06:13.204Z,8.60
2024-02-07T18:09:00.150Z,8.60
2024-02-07T18:11:47.166Z,8.60
2024-02-07T18:14:33.933Z,8.50
2024-02-07T18:17:20.828Z,8.50
2024-02-07T18:20:08.535Z,8.50
2024-02-07T18:22:55.554Z,8.50
2024-02-07T18:25:42.490Z,8.50
2024-02-07T18:28:29.437Z,8.50
2024-02-07T18:31:16.464Z,8.50
2024-02-07T18:34:03.987Z,8.50
2024-02-07T18:36:50.802Z,8.50
2024-02-07T18:39:37.656Z,8.50
2024-02-07T18:42:24.433Z,8.50
2024-02-07T18:45:12.334Z,8.50
2024-02-07T18:47:59.909Z,8.50
2024-02-07T18:50:46.797Z,8.50
2024-02-07T18:53:33.589Z,8.50
2024-02-07T18:56:20.665Z,8.50
2024-02-07T18:59:07.442Z,8.50
2024-02-07T19:01:54.454Z,8.50
2024-02-07T19:04:41.461Z,8.40
2024-02-07T19:07:28.358Z,8.40
2024-02-07T19:10:15.384Z,8.40
2024-02-07T19:13:03.219Z,8.40
2024-02-07T19:15:50.154Z,8.40
2024-02-07T19:18:37.139Z,8.40
2024-02-07T19:21:24.780Z,8.40
2024-02-07T19:24:15.579Z,8.40
2024-02-07T19:27:02.415Z,8.40
2024-02-07T19:29:50.212Z,8.40
2024-02-07T19:32:37.282Z,8.40
2024-02-07T19:35:25.306Z,8.40
2024-02-07T19:38:13.168Z,8.40
2024-02-07T19:41:01.193Z,8.40
2024-02-07T19:43:48.165Z,8.40
2024-02-07T19:46:35.043Z,8.40
2024-02-07T19:49:22.001Z,8.40
2024-02-07T19:52:10.070Z,8.40
2024-02-07T19:54:56.816Z,8.40
2024-02-07T19:57:43.772Z,8.40
2024-02-07T20:00:30.877Z,8.40
2024-02-07T20:03:18.032Z,8.40
2024-02-07T20:06:05.233Z,8.40
2024-02-07T20:08:52.219Z,8.30
2024-02-07T20:11:39.031Z,8.30
2024-02-07T20:14:26.388Z,8.30
2024-02-07T20:17:13.401Z,8.30
2024-02-07T20:20:00.752Z,8.30
2024-02-07T20:22:47.727Z,8.30
2024-02-07T20:25:34.724Z,8.30
2024-02-07T20:28:24.116Z,8.30
2024-02-07T20:31:11.396Z,8.30
2024-02-07T20:34:01.212Z,8.30
2024-02-07T20:36:49.617Z,8.30
2024-02-07T20:39:39.050Z,8.20
2024-02-07T20:42:29.917Z,8.20
2024-02-07T20:45:23.209Z,8.30
2024-02-07T20:48:10.208Z,8.20
2024-02-07T20:50:57.605Z,8.20
2024-02-07T20:53:44.490Z,8.20
2024-02-07T20:56:32.940Z,8.20
2024-02-07T20:59:19.938Z,8.20
2024-02-07T21:02:07.090Z,8.20
2024-02-07T21:04:53.963Z,8.20
2024-02-07T21:07:41.421Z,8.20
2024-02-07T21:10:28.340Z,8.20
2024-02-07T21:13:17.023Z,8.20
2024-02-07T21:16:04.800Z,8.20
2024-02-07T21:18:51.886Z,8.10
2024-02-07T21:21:38.764Z,8.10
2024-02-07T21:24:25.684Z,8.10
2024-02-07T21:27:12.500Z,8.10
2024-02-07T21:29:59.560Z,8.10
2024-02-07T21:32:46.698Z,8.10
2024-02-07T21:35:33.945Z,8.10
2024-02-07T21:38:21.064Z,8.10
2024-02-07T21:41:08.149Z,8.10
2024-02-07T21:43:55.636Z,8.10
2024-02-07T21:46:42.953Z,8.10
2024-02-07T21:49:30.831Z,8.10
2024-02-07T21:52:17.657Z,8.10
2024-02-07T21:55:04.883Z,8.10
2024-02-07T21:57:51.682Z,8.10
2024-02-07T22:00:38.501Z,8.10
2024-02-07T22:03:25.323Z,8.10
2024-02-07T22:06:12.076Z,8.10
2024-02-07T22:08:58.907Z,8.10
2024-02-07T22:11:45.655Z,8.10
2024-02-07T22:14:32.473Z,8.10
2024-02-07T22:17:19.366Z,8.10
2024-02-07T22:20:07.434Z,8.10
2024-02-07T22:22:54.334Z,8.10
2024-02-07T22:25:41.150Z,8.10
2024-02-07T22:28:28.732Z,8.10
2024-02-07T22:31:23.023Z,8.10
2024-02-07T22:34:10.091Z,8.10
2024-02-07T22:36:56.968Z,8.10
2024-02-07T22:39:43.815Z,8.10
2024-02-07T22:42:30.575Z,8.10
2024-02-07T22:45:24.393Z,8.10
2024-02-07T22:48:11.427Z,8.10
2024-02-07T22:50:58.270Z,8.10
2024-02-07T22:53:45.082Z,8.10
2024-02-07T22:56:31.862Z,8.10
2024-02-07T22:59:18.880Z,8.00
2024-02-07T23:02:05.911Z,8.10
2024-02-07T23:04:53.166Z,8.10
2024-02-07T23:07:40.303Z,8.10
2024-02-07T23:10:27.118Z,8.10
2024-02-07T23:13:14.051Z,8.10
2024-02-07T23:16:01.266Z,8.10
2024-02-07T23:18:48.249Z,8.10
2024-02-07T23:21:35.119Z,8.10
2024-02-07T23:24:21.920Z,8.10
2024-02-07T23:27:08.706Z,8.10
2024-02-07T23:29:55.743Z,8.10
2024-02-07T23:32:42.611Z,8.10
2024-02-07T23:35:29.569Z,8.10
2024-02-07T23:38:16.449Z,8.00
2024-02-07T23:41:03.289Z,8.00
2024-02-07T23:43:50.049Z,8.10
2024-02-07T23:46:36.919Z,8.00
2024-02-07T23:49:23.874Z,8.00
2024-02-07T23:52:10.694Z,8.10
2024-02-07T23:54:57.515Z,8.00
2024-02-07T23:57:44.365Z,8.00
